CheckWX is a tool to help pilots better visualize weather data.  It is not intended as a substitute for an official pre-flight weather briefing.

08:06:04 UTC

EVLA TAF
Liepāja International Airport
Liepāja, Latvia
TAF EVLA 190502Z 1906/2006 30010KT 9999 OVC010 TEMPO 1906/1914 BKN005 SCT015CB BECMG 1914/1916 BKN015 BECMG 1923/2001 23010KT

Mar-19@
06:00 UTC

Mar-19 @ 06:00 UTC

Mar-19@
14:00 UTC

Mar-19 @ 14:00 UTC

TAF EVLA 190502Z 1906/2006 30010KT 9999 OVC010
Wind
  • 300° at 10 KTS
Cloud Levels
  • Overcast at 1,000' AGL

Mar-19@
06:00 UTC

Mar-19 @ 06:00 UTC

Mar-19@
14:00 UTC

Mar-19 @ 14:00 UTC

TEMPO 1906/1914 BKN005 SCT015CB

Temporary

Temporary Changes expected for less than half the time period

Cloud Levels
  • Broken at 500' AGL
  • Scattered at 1,500' AGL

Mar-19@
14:00 UTC

Mar-19 @ 14:00 UTC

Mar-19@
23:00 UTC

Mar-19 @ 23:00 UTC

BECMG 1914/1916 BKN015

Becoming

Becoming Conditions expected by Tue, Mar 19, 2019 @ 16:00 UTC

Wind
  • 300° at 10 KTS
Cloud Levels
  • Broken at 1,500' AGL

Mar-19@
23:00 UTC

Mar-19 @ 23:00 UTC

Mar-20@
06:00 UTC

Mar-20 @ 06:00 UTC

BECMG 1923/2001 23010KT

Becoming

Becoming Conditions expected by Wed, Mar 20, 2019 @ 01:00 UTC

Wind
  • 230° at 10 KTS
Cloud Levels
  • Broken at 1,500' AGL